Time;durP1;ratioP1;P1;durP2;ratioP2;P2;SDS_P1;SDS_P2;PMS_P1;PMS_P2;Temp;Humidity;BMP_temperature;BMP_pressure;BME280_temperature;BME280_humidity;BME280_pressure;Samples;Min_cycle;Max_cycle;Signal;HPM_P1;HPM_P2
2023/04/12 00:01:06;;;;;;;0.63;0.63;;;;;;;;;;5120398;28;20203;-63
2023/04/12 00:03:33;;;;;;;0.70;0.70;;;;;;;;;;5120033;28;20605;-63
2023/04/12 00:06:06;;;;;;;0.70;0.70;;;;;;;;;;5120114;28;20249;-63
2023/04/12 00:08:34;;;;;;;0.80;0.60;;;;;;;;;;5119296;28;20601;-63
2023/04/12 00:11:02;;;;;;;0.60;0.60;;;;;;;;;;5119609;28;20299;-63
2023/04/12 00:13:30;;;;;;;0.50;0.50;;;;;;;;;;5119556;28;20659;-63
2023/04/12 00:15:57;;;;;;;0.50;0.50;;;;;;;;;;5119360;28;20218;-63
2023/04/12 00:18:26;;;;;;;0.60;0.60;;;;;;;;;;5119282;28;20203;-63
2023/04/12 00:20:53;;;;;;;0.75;0.70;;;;;;;;;;5119335;28;20261;-63
2023/04/12 00:23:21;;;;;;;0.63;0.60;;;;;;;;;;5119108;28;20272;-63
2023/04/12 00:25:48;;;;;;;0.60;0.60;;;;;;;;;;5119076;28;20250;-63
2023/04/12 00:28:16;;;;;;;0.70;0.60;;;;;;;;;;5119454;27;20213;-63
2023/04/12 00:30:44;;;;;;;0.80;0.60;;;;;;;;;;5127174;27;20204;-63
2023/04/12 00:33:12;;;;;;;0.70;0.60;;;;;;;;;;5139658;27;20198;-63
2023/04/12 00:35:41;;;;;;;0.68;0.68;;;;;;;;;;5139158;27;20194;-63
2023/04/12 00:38:09;;;;;;;0.60;0.60;;;;;;;;;;5139114;27;20248;-63
2023/04/12 00:40:37;;;;;;;0.95;0.50;;;;;;;;;;5138599;27;20554;-63
2023/04/12 00:43:04;;;;;;;0.70;0.70;;;;;;;;;;5121632;27;20195;-63
2023/04/12 00:45:32;;;;;;;0.50;0.50;;;;;;;;;;5139079;27;20229;-63
2023/04/12 00:47:59;;;;;;;0.63;0.63;;;;;;;;;;5140127;27;20203;-63
2023/04/12 00:50:27;;;;;;;0.68;0.68;;;;;;;;;;5139167;27;20277;-63
2023/04/12 00:52:57;;;;;;;0.73;0.73;;;;;;;;;;5101978;28;20597;-63
2023/04/12 00:55:24;;;;;;;0.60;0.60;;;;;;;;;;5118662;27;20195;-63
2023/04/12 00:57:52;;;;;;;0.70;0.70;;;;;;;;;;5118703;28;20195;-63
2023/04/12 01:00:20;;;;;;;0.60;0.60;;;;;;;;;;5118341;28;20250;-63
2023/04/12 01:02:49;;;;;;;0.70;0.70;;;;;;;;;;5133592;27;20202;-63
2023/04/12 01:05:20;;;;;;;0.57;0.57;;;;;;;;;;5138245;27;20636;-63
2023/04/12 01:07:52;;;;;;;0.63;0.60;;;;;;;;;;5138943;27;20235;-63
2023/04/12 01:10:27;;;;;;;0.60;0.57;;;;;;;;;;5127431;27;20573;-63
2023/04/12 01:13:00;;;;;;;0.60;0.60;;;;;;;;;;5136690;27;20205;-63
2023/04/12 01:15:30;;;;;;;0.80;0.60;;;;;;;;;;5138676;27;20241;-63
2023/04/12 01:18:01;;;;;;;0.60;0.60;;;;;;;;;;5130475;27;20200;-63
2023/04/12 01:20:30;;;;;;;0.90;0.70;;;;;;;;;;5118269;28;20203;-63
2023/04/12 01:23:08;;;;;;;0.50;0.50;;;;;;;;;;5118797;28;20249;-63
2023/04/12 01:25:46;;;;;;;0.70;0.70;;;;;;;;;;5117911;28;20718;-63
2023/04/12 01:28:16;;;;;;;0.60;0.60;;;;;;;;;;5118575;28;20344;-63
2023/04/12 01:30:47;;;;;;;0.70;0.63;;;;;;;;;;5118118;28;20198;-63
2023/04/12 01:33:15;;;;;;;1.00;0.80;;;;;;;;;;5118956;27;20278;-63
2023/04/12 01:35:43;;;;;;;0.80;0.80;;;;;;;;;;5126688;27;20468;-63
2023/04/12 01:38:11;;;;;;;0.60;0.60;;;;;;;;;;5136754;27;20198;-63
2023/04/12 01:40:41;;;;;;;0.95;0.57;;;;;;;;;;5137879;27;20197;-63
2023/04/12 01:43:09;;;;;;;0.75;0.70;;;;;;;;;;5117021;28;20199;-63
2023/04/12 01:45:38;;;;;;;0.60;0.60;;;;;;;;;;5131678;27;20338;-63
2023/04/12 01:48:06;;;;;;;0.60;0.60;;;;;;;;;;5138675;28;20241;-63
2023/04/12 01:50:39;;;;;;;0.65;0.60;;;;;;;;;;5137646;28;20226;-63
2023/04/12 01:53:09;;;;;;;0.70;0.70;;;;;;;;;;5138701;28;20257;-63
2023/04/12 01:55:38;;;;;;;0.77;0.77;;;;;;;;;;5137212;28;20554;-63
2023/04/12 01:58:06;;;;;;;0.70;0.70;;;;;;;;;;5128991;28;20454;-63
2023/04/12 02:00:36;;;;;;;1.10;0.60;;;;;;;;;;5118195;28;20264;-63
2023/04/12 02:03:05;;;;;;;0.60;0.60;;;;;;;;;;5117355;28;20199;-63
2023/04/12 02:05:32;;;;;;;0.95;0.75;;;;;;;;;;5124869;28;20198;-63
2023/04/12 02:08:00;;;;;;;0.68;0.68;;;;;;;;;;5138483;28;20478;-63
2023/04/12 02:10:31;;;;;;;0.60;0.60;;;;;;;;;;5138671;28;20198;-64
2023/04/12 02:13:02;;;;;;;0.55;0.50;;;;;;;;;;5119768;28;20817;-63
2023/04/12 02:15:29;;;;;;;0.80;0.80;;;;;;;;;;5125843;28;20209;-63
2023/04/12 02:17:58;;;;;;;0.73;0.60;;;;;;;;;;5138234;28;20202;-63
2023/04/12 02:20:27;;;;;;;0.50;0.50;;;;;;;;;;5122123;28;20205;-63
2023/04/12 02:22:54;;;;;;;0.60;0.60;;;;;;;;;;5135712;28;20330;-63
2023/04/12 02:25:22;;;;;;;0.70;0.70;;;;;;;;;;5136837;28;20202;-63
2023/04/12 02:27:50;;;;;;;0.70;0.65;;;;;;;;;;5138008;28;20285;-62
2023/04/12 02:30:17;;;;;;;0.70;0.70;;;;;;;;;;5127502;28;20199;-63
2023/04/12 02:32:45;;;;;;;0.60;0.60;;;;;;;;;;5117847;28;20203;-63
2023/04/12 02:35:12;;;;;;;0.70;0.70;;;;;;;;;;5117137;28;20286;-63
2023/04/12 02:37:42;;;;;;;0.80;0.80;;;;;;;;;;5133559;28;20195;-63
2023/04/12 02:40:11;;;;;;;0.80;0.80;;;;;;;;;;5137853;28;20285;-63
2023/04/12 02:42:38;;;;;;;0.65;0.60;;;;;;;;;;5137438;28;20688;-63
2023/04/12 02:45:06;;;;;;;0.77;0.73;;;;;;;;;;5126930;28;20254;-63
2023/04/12 02:47:33;;;;;;;0.85;0.70;;;;;;;;;;5117641;28;20215;-63
2023/04/12 02:50:01;;;;;;;0.77;0.73;;;;;;;;;;5117589;28;20483;-63
2023/04/12 02:52:28;;;;;;;1.05;0.95;;;;;;;;;;5125770;28;20198;-63
2023/04/12 02:54:58;;;;;;;0.80;0.80;;;;;;;;;;5127853;27;20202;-63
2023/04/12 02:57:25;;;;;;;0.60;0.60;;;;;;;;;;5136721;27;20195;-63
2023/04/12 02:59:53;;;;;;;0.63;0.63;;;;;;;;;;5133059;27;20264;-63
2023/04/12 03:02:20;;;;;;;0.70;0.70;;;;;;;;;;5120995;28;20210;-63
2023/04/12 03:04:49;;;;;;;0.70;0.70;;;;;;;;;;5120849;28;20301;-63
2023/04/12 03:07:18;;;;;;;0.70;0.70;;;;;;;;;;5130129;27;20218;-63
2023/04/12 03:09:45;;;;;;;0.70;0.70;;;;;;;;;;5132403;27;20194;-63
2023/04/12 03:12:14;;;;;;;0.75;0.75;;;;;;;;;;5141135;27;20216;-63
2023/04/12 03:14:42;;;;;;;0.73;0.70;;;;;;;;;;5122406;27;20252;-63
2023/04/12 03:17:10;;;;;;;0.60;0.60;;;;;;;;;;5120686;28;20295;-63
2023/04/12 03:19:38;;;;;;;0.60;0.60;;;;;;;;;;5120319;27;20195;-63
2023/04/12 03:22:06;;;;;;;0.77;0.77;;;;;;;;;;5120115;28;20292;-63
2023/04/12 03:24:34;;;;;;;0.75;0.70;;;;;;;;;;5121811;27;20232;-63
2023/04/12 03:27:02;;;;;;;0.60;0.60;;;;;;;;;;5120077;28;20222;-63
2023/04/12 03:29:31;;;;;;;0.70;0.70;;;;;;;;;;5123351;27;20285;-63
2023/04/12 03:31:59;;;;;;;0.70;0.70;;;;;;;;;;5140547;27;20237;-63
2023/04/12 03:34:27;;;;;;;0.60;0.60;;;;;;;;;;5140565;27;20202;-63
2023/04/12 03:36:55;;;;;;;1.30;0.80;;;;;;;;;;5129203;27;20570;-63
2023/04/12 03:39:22;;;;;;;0.63;0.63;;;;;;;;;;5120994;27;20590;-63
2023/04/12 03:41:51;;;;;;;0.70;0.70;;;;;;;;;;5120371;27;20293;-63
2023/04/12 03:44:20;;;;;;;0.70;0.70;;;;;;;;;;5125642;27;20198;-63
2023/04/12 03:46:48;;;;;;;0.90;0.80;;;;;;;;;;5140331;27;20244;-63
2023/04/12 03:49:17;;;;;;;0.60;0.60;;;;;;;;;;5140220;27;20289;-63
2023/04/12 03:51:44;;;;;;;0.60;0.60;;;;;;;;;;5126762;27;20232;-63
2023/04/12 03:54:12;;;;;;;0.70;0.60;;;;;;;;;;5121097;27;20488;-63
2023/04/12 03:56:40;;;;;;;1.05;0.80;;;;;;;;;;5130949;27;20264;-63
2023/04/12 03:59:07;;;;;;;0.70;0.70;;;;;;;;;;5121017;27;20195;-63
2023/04/12 04:01:35;;;;;;;0.77;0.77;;;;;;;;;;5130412;27;20217;-63
2023/04/12 04:04:05;;;;;;;0.60;0.60;;;;;;;;;;5119776;28;20582;-63
2023/04/12 04:06:33;;;;;;;0.60;0.60;;;;;;;;;;5118357;28;20698;-63
2023/04/12 04:09:00;;;;;;;0.80;0.80;;;;;;;;;;5119828;28;20571;-63
2023/04/12 04:11:28;;;;;;;0.80;0.77;;;;;;;;;;5119183;28;20285;-63
2023/04/12 04:13:55;;;;;;;0.70;0.55;;;;;;;;;;5119356;28;20301;-63
2023/04/12 04:16:23;;;;;;;0.73;0.68;;;;;;;;;;5118775;28;20210;-63
2023/04/12 04:18:50;;;;;;;0.70;0.70;;;;;;;;;;5118251;28;20203;-63
2023/04/12 04:21:21;;;;;;;0.55;0.55;;;;;;;;;;5118979;28;20202;-63
2023/04/12 04:23:50;;;;;;;1.02;0.90;;;;;;;;;;5098188;28;20236;-63
2023/04/12 04:26:19;;;;;;;0.60;0.60;;;;;;;;;;5098600;28;20208;-63
2023/04/12 04:28:49;;;;;;;0.73;0.70;;;;;;;;;;5115046;28;20774;-63
2023/04/12 04:31:17;;;;;;;0.80;0.80;;;;;;;;;;5101433;28;20199;-62
2023/04/12 04:33:44;;;;;;;0.70;0.70;;;;;;;;;;5098266;28;20599;-63
2023/04/12 04:36:12;;;;;;;0.70;0.70;;;;;;;;;;5099191;28;20298;-63
2023/04/12 04:38:41;;;;;;;0.70;0.70;;;;;;;;;;5097885;28;20207;-63
2023/04/12 04:41:09;;;;;;;1.17;0.80;;;;;;;;;;5109805;28;20203;-63
2023/04/12 04:43:38;;;;;;;0.73;0.73;;;;;;;;;;5110818;28;20296;-63
2023/04/12 04:46:06;;;;;;;0.73;0.70;;;;;;;;;;5097753;28;20490;-63
2023/04/12 04:48:33;;;;;;;0.70;0.70;;;;;;;;;;5097076;28;20641;-63
2023/04/12 04:51:01;;;;;;;1.00;0.90;;;;;;;;;;5117744;28;20203;-63
2023/04/12 04:53:29;;;;;;;0.73;0.73;;;;;;;;;;5118127;28;20214;-63
2023/04/12 04:56:01;;;;;;;0.60;0.60;;;;;;;;;;5118156;28;20290;-63
2023/04/12 04:58:28;;;;;;;1.38;0.80;;;;;;;;;;5109731;28;20195;-63
2023/04/12 05:00:58;;;;;;;0.70;0.70;;;;;;;;;;5111688;28;20237;-63
2023/04/12 05:03:26;;;;;;;0.60;0.60;;;;;;;;;;5117877;28;20578;-63
2023/04/12 05:05:55;;;;;;;0.60;0.60;;;;;;;;;;5117211;28;20199;-63
2023/04/12 05:08:22;;;;;;;0.70;0.70;;;;;;;;;;5110641;28;20270;-63
2023/04/12 05:10:51;;;;;;;0.93;0.88;;;;;;;;;;5096964;28;20624;-63
2023/04/12 05:13:21;;;;;;;0.60;0.60;;;;;;;;;;5110572;28;20221;-63
2023/04/12 05:15:48;;;;;;;0.75;0.75;;;;;;;;;;5099569;28;20274;-63
2023/04/12 05:18:16;;;;;;;0.60;0.60;;;;;;;;;;5105725;28;20202;-63
2023/04/12 05:20:44;;;;;;;0.77;0.77;;;;;;;;;;5099411;28;20626;-63
2023/04/12 05:23:11;;;;;;;0.73;0.63;;;;;;;;;;5111809;28;20291;-63
2023/04/12 05:25:45;;;;;;;0.70;0.70;;;;;;;;;;5133605;27;20209;-63
2023/04/12 05:28:13;;;;;;;0.73;0.70;;;;;;;;;;5138004;27;20302;-63
2023/04/12 05:30:42;;;;;;;0.68;0.68;;;;;;;;;;5121988;27;20213;-63
2023/04/12 05:33:09;;;;;;;0.70;0.70;;;;;;;;;;5117171;28;20203;-63
2023/04/12 05:35:37;;;;;;;0.80;0.80;;;;;;;;;;5124594;27;20190;-63
2023/04/12 05:38:04;;;;;;;0.60;0.60;;;;;;;;;;5126114;27;20191;-63
2023/04/12 05:40:32;;;;;;;0.90;0.85;;;;;;;;;;5118353;27;20590;-63
2023/04/12 05:43:00;;;;;;;0.60;0.60;;;;;;;;;;5117703;28;20285;-63
2023/04/12 05:45:27;;;;;;;0.70;0.70;;;;;;;;;;5136217;27;20605;-63
2023/04/12 05:47:56;;;;;;;0.90;0.68;;;;;;;;;;5136207;27;20225;-63
2023/04/12 05:50:23;;;;;;;0.63;0.60;;;;;;;;;;5136354;27;20562;-63
2023/04/12 05:52:52;;;;;;;0.80;0.80;;;;;;;;;;5122146;28;20194;-63
2023/04/12 05:55:20;;;;;;;0.80;0.60;;;;;;;;;;5131023;27;20230;-63
2023/04/12 05:57:48;;;;;;;0.85;0.85;;;;;;;;;;5122064;28;20191;-63
2023/04/12 06:00:17;;;;;;;0.70;0.70;;;;;;;;;;5115849;28;20202;-63
2023/04/12 06:02:46;;;;;;;0.80;0.80;;;;;;;;;;5116068;28;20864;-63
2023/04/12 06:05:15;;;;;;;1.67;0.80;;;;;;;;;;5116269;28;20685;-63
2023/04/12 06:07:45;;;;;;;0.90;0.90;;;;;;;;;;5116671;28;20283;-63
2023/04/12 06:10:13;;;;;;;1.10;0.77;;;;;;;;;;5115806;28;20268;-63
2023/04/12 06:12:41;;;;;;;0.60;0.60;;;;;;;;;;5115517;28;20210;-63
2023/04/12 06:15:09;;;;;;;1.23;1.00;;;;;;;;;;5116111;28;20195;-63
2023/04/12 06:17:37;;;;;;;0.80;0.68;;;;;;;;;;5116173;28;20209;-62
2023/04/12 06:20:07;;;;;;;1.48;0.80;;;;;;;;;;5116527;28;20238;-63
2023/04/12 06:22:35;;;;;;;0.85;0.77;;;;;;;;;;5126241;28;20577;-63
2023/04/12 06:25:03;;;;;;;0.70;0.70;;;;;;;;;;5097597;28;20192;-63
2023/04/12 06:27:31;;;;;;;1.05;0.88;;;;;;;;;;5095992;28;20223;-63
2023/04/12 06:29:58;;;;;;;0.80;0.80;;;;;;;;;;5103286;28;20360;-63
2023/04/12 06:32:26;;;;;;;1.55;0.65;;;;;;;;;;5114008;28;20202;-63
2023/04/12 06:34:54;;;;;;;1.75;0.80;;;;;;;;;;5099569;28;20446;-63
2023/04/12 06:37:22;;;;;;;2.17;0.70;;;;;;;;;;5100259;28;20196;-63
2023/04/12 06:39:51;;;;;;;2.50;0.80;;;;;;;;;;5099428;28;20575;-63
2023/04/12 06:42:18;;;;;;;1.75;0.90;;;;;;;;;;5099382;28;20282;-63
2023/04/12 06:44:46;;;;;;;0.90;0.90;;;;;;;;;;5106145;28;20525;-63
2023/04/12 06:47:14;;;;;;;1.00;0.73;;;;;;;;;;5117944;28;20238;-63
2023/04/12 06:49:41;;;;;;;2.35;0.80;;;;;;;;;;5098944;28;20227;-63
2023/04/12 06:52:09;;;;;;;1.25;0.70;;;;;;;;;;5099076;28;20531;-63
2023/04/12 06:54:37;;;;;;;2.05;1.00;;;;;;;;;;5099583;28;20218;-63
2023/04/12 06:57:09;;;;;;;1.17;0.80;;;;;;;;;;5099406;28;20192;-63
2023/04/12 06:59:36;;;;;;;1.15;0.90;;;;;;;;;;5100918;28;20372;-63
2023/04/12 07:02:05;;;;;;;1.10;0.75;;;;;;;;;;5119832;28;20203;-63
2023/04/12 07:04:33;;;;;;;1.88;0.80;;;;;;;;;;5105746;28;20204;-63
2023/04/12 07:07:00;;;;;;;1.38;0.90;;;;;;;;;;5098746;28;20290;-63
2023/04/12 07:09:27;;;;;;;1.33;0.77;;;;;;;;;;5106911;28;20195;-63
2023/04/12 07:11:55;;;;;;;2.00;1.10;;;;;;;;;;5119722;28;20651;-63
2023/04/12 07:14:24;;;;;;;1.02;0.93;;;;;;;;;;5112455;28;20287;-63
2023/04/12 07:16:51;;;;;;;1.17;1.00;;;;;;;;;;5098532;28;20196;-63
2023/04/12 07:19:19;;;;;;;1.58;1.00;;;;;;;;;;5107638;28;20196;-63
2023/04/12 07:21:46;;;;;;;1.10;0.98;;;;;;;;;;5098994;28;20251;-63
2023/04/12 07:24:13;;;;;;;1.05;0.90;;;;;;;;;;5120550;27;20585;-63
2023/04/12 07:26:41;;;;;;;1.15;1.00;;;;;;;;;;5138612;27;20212;-63
2023/04/12 07:29:09;;;;;;;1.05;0.90;;;;;;;;;;5138297;27;20218;-63
2023/04/12 07:31:38;;;;;;;1.15;1.00;;;;;;;;;;5119177;27;20198;-63
2023/04/12 07:34:05;;;;;;;1.95;1.13;;;;;;;;;;5121650;27;20297;-63
2023/04/12 07:36:32;;;;;;;1.48;1.10;;;;;;;;;;5140103;27;20206;-63
2023/04/12 07:39:00;;;;;;;1.95;0.90;;;;;;;;;;5136302;27;20200;-63
2023/04/12 07:41:27;;;;;;;1.80;1.25;;;;;;;;;;5137958;27;20543;-63
2023/04/12 07:43:55;;;;;;;1.00;0.93;;;;;;;;;;5138286;27;20209;-63
2023/04/12 07:46:22;;;;;;;2.00;1.10;;;;;;;;;;5121442;27;20652;-63
2023/04/12 07:48:52;;;;;;;1.15;1.02;;;;;;;;;;5123483;27;20215;-63
2023/04/12 07:51:19;;;;;;;2.05;1.00;;;;;;;;;;5137919;27;20228;-63
2023/04/12 07:53:47;;;;;;;1.33;1.20;;;;;;;;;;5137246;27;20202;-63
2023/04/12 07:56:15;;;;;;;1.77;0.98;;;;;;;;;;5138842;27;20198;-63
2023/04/12 07:58:42;;;;;;;1.55;0.98;;;;;;;;;;5138140;27;20226;-63
2023/04/12 08:01:10;;;;;;;2.42;1.35;;;;;;;;;;5121382;27;20213;-62
2023/04/12 08:03:38;;;;;;;1.20;1.10;;;;;;;;;;5117619;28;20240;-63
2023/04/12 08:06:07;;;;;;;1.50;1.00;;;;;;;;;;5118094;28;20234;-63
2023/04/12 08:08:35;;;;;;;1.90;1.20;;;;;;;;;;5118155;28;20235;-63
2023/04/12 08:11:05;;;;;;;1.83;1.20;;;;;;;;;;5118135;28;20203;-63
2023/04/12 08:13:32;;;;;;;0.95;0.85;;;;;;;;;;5119284;27;20286;-63
2023/04/12 08:15:59;;;;;;;2.53;1.17;;;;;;;;;;5120116;27;20201;-63
2023/04/12 08:18:27;;;;;;;1.73;1.20;;;;;;;;;;5117839;28;20203;-63
2023/04/12 08:20:55;;;;;;;1.27;1.08;;;;;;;;;;5117952;28;20286;-63
2023/04/12 08:23:25;;;;;;;1.20;1.02;;;;;;;;;;5117566;28;20234;-63
2023/04/12 08:25:58;;;;;;;1.42;1.10;;;;;;;;;;5117764;28;20593;-63
2023/04/12 08:28:27;;;;;;;2.30;1.20;;;;;;;;;;5116751;28;20793;-63
2023/04/12 08:30:54;;;;;;;1.30;1.08;;;;;;;;;;5130900;27;20221;-63
2023/04/12 08:33:22;;;;;;;1.30;1.20;;;;;;;;;;5117306;28;20207;-64
2023/04/12 08:35:51;;;;;;;1.35;1.25;;;;;;;;;;5117491;27;20191;-64
2023/04/12 08:38:18;;;;;;;1.63;1.10;;;;;;;;;;5133353;27;20205;-63
2023/04/12 08:40:47;;;;;;;1.50;1.40;;;;;;;;;;5117283;28;20662;-63
2023/04/12 08:43:16;;;;;;;1.55;1.20;;;;;;;;;;5118468;27;20207;-63
2023/04/12 08:45:43;;;;;;;2.13;1.20;;;;;;;;;;5133818;27;20199;-63
2023/04/12 08:48:11;;;;;;;1.30;1.20;;;;;;;;;;5137451;27;20605;-63
2023/04/12 08:50:38;;;;;;;1.73;1.10;;;;;;;;;;5115731;27;20199;-63
2023/04/12 08:53:06;;;;;;;1.58;1.40;;;;;;;;;;5121399;27;20550;-63
2023/04/12 08:55:33;;;;;;;2.47;1.10;;;;;;;;;;5130177;27;20195;-63
2023/04/12 08:58:06;;;;;;;2.05;1.15;;;;;;;;;;5131205;27;20194;-63
2023/04/12 09:00:34;;;;;;;1.13;1.00;;;;;;;;;;5118119;27;20225;-63
2023/04/12 09:03:01;;;;;;;1.80;1.38;;;;;;;;;;5117100;28;20229;-63
2023/04/12 09:05:29;;;;;;;1.20;1.10;;;;;;;;;;5133194;27;20284;-63
2023/04/12 09:07:57;;;;;;;1.70;1.40;;;;;;;;;;5134358;27;20215;-63
2023/04/12 09:10:32;;;;;;;2.00;1.20;;;;;;;;;;5131287;27;20210;-63
2023/04/12 09:13:00;;;;;;;1.23;1.00;;;;;;;;;;5119588;27;20194;-63
2023/04/12 09:15:29;;;;;;;1.20;1.10;;;;;;;;;;5124826;27;20199;-63
2023/04/12 09:18:06;;;;;;;1.75;1.30;;;;;;;;;;5129546;27;20194;-63
2023/04/12 09:20:34;;;;;;;1.65;1.10;;;;;;;;;;5115833;28;20257;-63
2023/04/12 09:23:02;;;;;;;1.00;0.90;;;;;;;;;;5115897;28;20234;-63
2023/04/12 09:25:39;;;;;;;1.70;1.10;;;;;;;;;;5116406;28;20802;-63
2023/04/12 09:28:19;;;;;;;1.50;1.20;;;;;;;;;;5116412;28;20233;-63
2023/04/12 09:30:50;;;;;;;1.20;1.00;;;;;;;;;;5115011;28;20602;-63
2023/04/12 09:33:18;;;;;;;1.13;1.02;;;;;;;;;;5105918;28;20606;-63
2023/04/12 09:35:45;;;;;;;2.55;1.20;;;;;;;;;;5095744;28;20206;-63
2023/04/12 09:38:13;;;;;;;1.17;1.08;;;;;;;;;;5096229;28;20238;-63
2023/04/12 09:40:40;;;;;;;1.08;0.98;;;;;;;;;;5096092;28;20203;-63
2023/04/12 09:43:08;;;;;;;1.48;1.00;;;;;;;;;;5104287;27;20204;-63
2023/04/12 09:45:37;;;;;;;1.58;0.88;;;;;;;;;;5136522;27;20271;-63
2023/04/12 09:48:07;;;;;;;1.38;1.00;;;;;;;;;;5136585;27;20404;-63
2023/04/12 09:50:35;;;;;;;1.38;1.27;;;;;;;;;;5135860;27;20202;-63
2023/04/12 09:53:03;;;;;;;1.73;0.85;;;;;;;;;;5136896;27;20288;-63
2023/04/12 09:55:32;;;;;;;1.85;1.13;;;;;;;;;;5136916;27;20206;-63
2023/04/12 09:58:03;;;;;;;1.52;1.10;;;;;;;;;;5136624;28;20202;-63
2023/04/12 10:00:32;;;;;;;1.05;0.95;;;;;;;;;;5136291;28;20198;-63
2023/04/12 10:03:01;;;;;;;1.63;1.00;;;;;;;;;;5136378;28;20210;-63
2023/04/12 10:05:30;;;;;;;1.33;1.10;;;;;;;;;;5138783;27;20300;-63
2023/04/12 10:07:57;;;;;;;1.30;1.02;;;;;;;;;;5141045;27;20213;-63
2023/04/12 10:10:25;;;;;;;1.17;1.08;;;;;;;;;;5141592;27;20512;-63
2023/04/12 10:12:53;;;;;;;2.08;1.20;;;;;;;;;;5140588;27;20238;-63
2023/04/12 10:15:21;;;;;;;1.63;0.95;;;;;;;;;;5140651;27;20501;-63
2023/04/12 10:17:49;;;;;;;1.27;1.00;;;;;;;;;;5140281;27;20212;-67
2023/04/12 10:20:17;;;;;;;1.20;1.08;;;;;;;;;;5140499;27;20198;-63
2023/04/12 10:22:47;;;;;;;1.13;0.90;;;;;;;;;;5139488;27;20237;-63
2023/04/12 10:25:15;;;;;;;1.70;1.10;;;;;;;;;;5139713;27;20220;-63
2023/04/12 10:27:43;;;;;;;1.00;0.90;;;;;;;;;;5140612;27;20298;-63
2023/04/12 10:30:21;;;;;;;1.27;1.00;;;;;;;;;;5139699;27;20236;-63
2023/04/12 10:32:49;;;;;;;1.95;1.10;;;;;;;;;;5139931;27;20198;-63
2023/04/12 10:35:17;;;;;;;1.75;1.15;;;;;;;;;;5140048;27;20213;-63
2023/04/12 10:38:01;;;;;;;1.52;0.90;;;;;;;;;;5139205;27;20227;-63
2023/04/12 10:40:30;;;;;;;1.20;1.10;;;;;;;;;;5139645;27;20262;-63
2023/04/12 10:43:16;;;;;;;1.45;1.00;;;;;;;;;;5114589;27;20204;-63
2023/04/12 10:45:43;;;;;;;1.52;1.20;;;;;;;;;;5099145;28;20586;-63
2023/04/12 10:48:29;;;;;;;1.30;0.88;;;;;;;;;;5098818;28;20204;-63
2023/04/12 10:51:11;;;;;;;1.25;1.00;;;;;;;;;;5097884;28;20227;-63
2023/04/12 10:53:40;;;;;;;1.55;1.00;;;;;;;;;;5097707;28;20199;-62
2023/04/12 10:56:22;;;;;;;1.10;1.00;;;;;;;;;;5097628;28;20733;-63
2023/04/12 10:58:56;;;;;;;1.42;1.10;;;;;;;;;;5098024;28;20218;-63
2023/04/12 11:01:24;;;;;;;0.90;0.90;;;;;;;;;;5098469;28;20301;-63
2023/04/12 11:04:24;;;;;;;1.10;1.00;;;;;;;;;;5097533;28;20207;-63
2023/04/12 11:06:56;;;;;;;1.00;0.90;;;;;;;;;;5097985;28;20756;-63
2023/04/12 11:09:26;;;;;;;0.98;0.90;;;;;;;;;;5098938;28;20223;-63
2023/04/12 11:11:57;;;;;;;1.10;0.95;;;;;;;;;;5098414;28;20568;-63
2023/04/12 11:14:28;;;;;;;0.80;0.80;;;;;;;;;;5098652;28;20203;-63
2023/04/12 11:17:13;;;;;;;1.08;0.98;;;;;;;;;;5097899;28;20211;-63
2023/04/12 11:19:41;;;;;;;1.23;1.10;;;;;;;;;;5097688;28;20199;-63
2023/04/12 11:22:10;;;;;;;0.95;0.82;;;;;;;;;;5096893;28;20354;-63
2023/04/12 11:24:40;;;;;;;1.25;0.80;;;;;;;;;;5098900;28;20253;-63
2023/04/12 11:27:07;;;;;;;0.80;0.80;;;;;;;;;;5098269;28;20202;-63
2023/04/12 11:29:35;;;;;;;1.15;1.05;;;;;;;;;;5097331;28;20233;-63
2023/04/12 11:32:03;;;;;;;0.98;0.85;;;;;;;;;;5098277;28;20208;-62
2023/04/12 11:34:33;;;;;;;0.98;0.88;;;;;;;;;;5097176;28;20200;-63
2023/04/12 11:37:03;;;;;;;1.65;1.02;;;;;;;;;;5097805;28;20272;-63
2023/04/12 11:39:30;;;;;;;1.15;0.90;;;;;;;;;;5097406;28;20195;-63
2023/04/12 11:42:01;;;;;;;1.48;0.80;;;;;;;;;;5098106;28;20203;-63
2023/04/12 11:44:28;;;;;;;0.77;0.77;;;;;;;;;;5097868;28;20231;-63
2023/04/12 11:46:56;;;;;;;0.70;0.70;;;;;;;;;;5097879;28;20286;-63
2023/04/12 11:49:24;;;;;;;0.60;0.60;;;;;;;;;;5097627;28;20239;-63
2023/04/12 11:52:01;;;;;;;0.90;0.80;;;;;;;;;;5097702;28;20214;-63
2023/04/12 11:54:29;;;;;;;0.70;0.68;;;;;;;;;;5097854;28;20591;-63
2023/04/12 11:56:57;;;;;;;0.85;0.80;;;;;;;;;;5097304;28;20648;-63
2023/04/12 11:59:32;;;;;;;0.85;0.70;;;;;;;;;;5097656;28;20200;-63
2023/04/12 12:02:01;;;;;;;0.82;0.80;;;;;;;;;;5097055;28;20211;-63
2023/04/12 12:04:28;;;;;;;1.17;0.80;;;;;;;;;;5097089;28;20534;-63
2023/04/12 12:06:56;;;;;;;1.65;0.70;;;;;;;;;;5097446;28;20207;-63
2023/04/12 12:09:24;;;;;;;0.70;0.60;;;;;;;;;;5097462;28;20231;-63
2023/04/12 12:11:52;;;;;;;0.98;0.70;;;;;;;;;;5097302;28;20204;-63
2023/04/12 12:14:19;;;;;;;0.80;0.70;;;;;;;;;;5097098;28;20246;-62
2023/04/12 12:16:55;;;;;;;0.70;0.68;;;;;;;;;;5096543;28;20199;-63
2023/04/12 12:19:32;;;;;;;0.93;0.68;;;;;;;;;;5096481;28;20575;-63
2023/04/12 12:22:12;;;;;;;0.73;0.70;;;;;;;;;;5096722;28;20239;-63
2023/04/12 12:24:40;;;;;;;0.80;0.80;;;;;;;;;;5095942;28;20195;-63
2023/04/12 12:27:07;;;;;;;0.70;0.65;;;;;;;;;;5096036;28;20215;-63
2023/04/12 12:29:36;;;;;;;0.65;0.65;;;;;;;;;;5096358;28;20713;-63
2023/04/12 12:32:10;;;;;;;0.52;0.52;;;;;;;;;;5095711;28;20199;-63
2023/04/12 12:34:38;;;;;;;0.55;0.50;;;;;;;;;;5096468;28;20203;-63
2023/04/12 12:37:09;;;;;;;0.77;0.77;;;;;;;;;;5096961;28;20199;-63
2023/04/12 12:39:36;;;;;;;0.95;0.70;;;;;;;;;;5096192;28;20195;-63
2023/04/12 12:42:04;;;;;;;0.90;0.80;;;;;;;;;;5096752;28;20206;-63
2023/04/12 12:44:32;;;;;;;0.75;0.75;;;;;;;;;;5095534;28;20573;-64
2023/04/12 12:47:00;;;;;;;1.10;0.73;;;;;;;;;;5096249;28;20204;-63
2023/04/12 12:49:29;;;;;;;0.73;0.60;;;;;;;;;;5096711;28;20292;-63
2023/04/12 12:51:57;;;;;;;0.60;0.60;;;;;;;;;;5096614;28;20493;-63
2023/04/12 12:54:24;;;;;;;0.90;0.65;;;;;;;;;;5096549;28;20340;-63
2023/04/12 12:56:52;;;;;;;0.70;0.60;;;;;;;;;;5095970;28;20209;-63
2023/04/12 12:59:19;;;;;;;0.52;0.50;;;;;;;;;;5095798;28;20222;-63
2023/04/12 13:01:46;;;;;;;0.98;0.70;;;;;;;;;;5096550;28;20234;-63
2023/04/12 13:04:14;;;;;;;0.90;0.70;;;;;;;;;;5095928;28;20203;-63
2023/04/12 13:06:43;;;;;;;0.90;0.68;;;;;;;;;;5095286;28;20218;-63
2023/04/12 13:09:10;;;;;;;0.60;0.60;;;;;;;;;;5095168;28;20319;-63
2023/04/12 13:11:38;;;;;;;0.50;0.50;;;;;;;;;;5096240;28;20204;-63
2023/04/12 13:14:05;;;;;;;0.70;0.70;;;;;;;;;;5095477;28;20195;-63
2023/04/12 13:16:33;;;;;;;0.50;0.50;;;;;;;;;;5095433;28;20195;-63
2023/04/12 13:19:00;;;;;;;0.70;0.60;;;;;;;;;;5096037;28;20567;-63
2023/04/12 13:21:27;;;;;;;0.60;0.60;;;;;;;;;;5095422;28;20235;-63
2023/04/12 13:23:56;;;;;;;0.60;0.60;;;;;;;;;;5095589;28;20205;-63
2023/04/12 13:26:24;;;;;;;0.50;0.50;;;;;;;;;;5095216;28;20204;-63
2023/04/12 13:28:52;;;;;;;0.60;0.60;;;;;;;;;;5095481;28;20253;-63
2023/04/12 13:31:19;;;;;;;0.63;0.63;;;;;;;;;;5095063;28;20218;-63
2023/04/12 13:33:46;;;;;;;0.60;0.60;;;;;;;;;;5094378;28;20207;-63
2023/04/12 13:36:14;;;;;;;0.47;0.47;;;;;;;;;;5094947;28;20204;-63
2023/04/12 13:38:41;;;;;;;0.60;0.60;;;;;;;;;;5094533;28;20471;-63
2023/04/12 13:41:10;;;;;;;0.60;0.60;;;;;;;;;;5095372;28;20745;-63
2023/04/12 13:43:37;;;;;;;0.73;0.63;;;;;;;;;;5094247;28;20266;-63
2023/04/12 13:46:05;;;;;;;0.60;0.55;;;;;;;;;;5094419;28;20203;-63
2023/04/12 13:48:33;;;;;;;0.70;0.50;;;;;;;;;;5093872;28;20460;-63
2023/04/12 13:51:00;;;;;;;0.50;0.50;;;;;;;;;;5095446;28;20785;-63
2023/04/12 13:53:29;;;;;;;0.70;0.57;;;;;;;;;;5095044;28;20204;-63
2023/04/12 13:55:57;;;;;;;0.50;0.50;;;;;;;;;;5094914;28;20206;-63
2023/04/12 13:58:26;;;;;;;0.50;0.50;;;;;;;;;;5095361;28;20210;-63
2023/04/12 14:00:55;;;;;;;0.50;0.45;;;;;;;;;;5094472;28;20283;-63
2023/04/12 14:03:22;;;;;;;0.50;0.50;;;;;;;;;;5094513;28;20206;-63
2023/04/12 14:05:50;;;;;;;0.57;0.45;;;;;;;;;;5094345;28;20238;-63
2023/04/12 14:08:18;;;;;;;0.50;0.50;;;;;;;;;;5094906;28;20334;-63
2023/04/12 14:10:45;;;;;;;0.50;0.50;;;;;;;;;;5093904;28;20599;-63
2023/04/12 14:13:12;;;;;;;0.60;0.60;;;;;;;;;;5094022;28;20295;-62
2023/04/12 14:15:41;;;;;;;0.43;0.43;;;;;;;;;;5093990;28;20298;-63
2023/04/12 14:18:08;;;;;;;0.40;0.40;;;;;;;;;;5094277;28;20298;-63
2023/04/12 14:20:36;;;;;;;0.65;0.50;;;;;;;;;;5093997;28;20208;-63
2023/04/12 14:23:03;;;;;;;0.65;0.50;;;;;;;;;;5094540;28;20330;-63
2023/04/12 14:25:31;;;;;;;0.50;0.40;;;;;;;;;;5094064;28;20199;-63
2023/04/12 14:27:58;;;;;;;0.45;0.40;;;;;;;;;;5094718;28;20629;-63
2023/04/12 14:30:26;;;;;;;0.40;0.40;;;;;;;;;;5095370;28;20242;-63
2023/04/12 14:32:54;;;;;;;0.40;0.40;;;;;;;;;;5094635;28;20195;-63
2023/04/12 14:35:22;;;;;;;0.73;0.52;;;;;;;;;;5094481;28;20199;-63
2023/04/12 14:37:49;;;;;;;0.35;0.30;;;;;;;;;;5119131;28;20194;-63
2023/04/12 14:40:17;;;;;;;0.50;0.50;;;;;;;;;;5134524;28;20191;-63
2023/04/12 14:42:44;;;;;;;0.50;0.50;;;;;;;;;;5135035;28;20202;-63
2023/04/12 14:45:13;;;;;;;0.40;0.40;;;;;;;;;;5135504;28;20202;-63
2023/04/12 14:47:41;;;;;;;0.70;0.60;;;;;;;;;;5135071;28;20202;-63
2023/04/12 14:50:10;;;;;;;0.50;0.50;;;;;;;;;;5135227;27;20223;-63
2023/04/12 14:52:37;;;;;;;0.40;0.40;;;;;;;;;;5138745;27;20212;-63